Time;durP1;ratioP1;P1;durP2;ratioP2;P2;SDS_P1;SDS_P2;PMS_P1;PMS_P2;Temp;Humidity;BMP_temperature;BMP_pressure;BME280_temperature;BME280_humidity;BME280_pressure;Samples;Min_cycle;Max_cycle;Signal;HPM_P1;HPM_P2
2021/06/24 00:24:11;;;;;;;;;14.00;12.50;;;;;;;;4712730;29;47379;-87
2021/06/24 01:47:28;;;;;;;;;;;;;;;;;;;;;
2021/06/24 01:50:33;;;;;;;;;;;;;;;;;;;;;
2021/06/24 01:59:54;;;;;;;;;10.75;10.00;;;;;;;;4797155;29;46953;-90
2021/06/24 02:12:15;;;;;;;;;;;;;;;;;;;;;
2021/06/24 02:21:33;;;;;;;;;;;;;;;;;;;;;
2021/06/24 02:24:28;;;;;;;;;10.00;10.00;;;;;;;;4839785;29;72951;-91
2021/06/24 02:30:30;;;;;;;;;;;;;;;;;;;;;
2021/06/24 02:45:58;;;;;;;;;;;;;;;;;;;;;
2021/06/24 03:39:00;;;;;;;;;;;;;;;;;;;;;
2021/06/24 03:47:18;;;;;;;;;10.00;9.75;;;;;;;;4716814;30;47481;-93
2021/06/24 03:53:34;;;;;;;;;;;;;;;;;;;;;
2021/06/24 04:11:59;;;;;;;;;11.75;9.25;;;;;;;;4883840;28;47332;-89
2021/06/24 04:26:54;;;;;;;;;;;;;;;;;;;;;
2021/06/24 04:29:27;;;;;;;;;11.50;10.00;;;;;;;;4965517;28;67531;-89
2021/06/24 04:35:28;;;;;;;;;;;;;;;;;;;;;
2021/06/24 04:41:12;;;;;;;;;11.75;11.00;;;;;;;;4990275;28;46978;-89
2021/06/24 04:43:47;;;;;;;;;;;;;;;;;;;;;
2021/06/24 04:46:23;;;;;;;;;;;;;;;;;;;;;
2021/06/24 04:48:57;;;;;;;;;10.00;9.00;;;;;;;;4998148;28;73053;-88
2021/06/24 04:51:23;;;;;;;;;13.00;9.00;;;;;;;;5000044;28;46847;-89
2021/06/24 04:53:48;;;;;;;;;10.50;10.50;;;;;;;;4999458;28;48051;-89
2021/06/24 04:59:37;;;;;;;;;11.75;9.00;;;;;;;;4983286;28;46862;-89
2021/06/24 05:02:09;;;;;;;;;8.25;8.00;;;;;;;;4974883;28;47223;-88
2021/06/24 05:05:07;;;;;;;;;;;;;;;;;;;;;
2021/06/24 05:07:43;;;;;;;;;11.50;10.50;;;;;;;;4991062;28;75185;-88
2021/06/24 05:10:39;;;;;;;;;;;;;;;;;;;;;
2021/06/24 05:13:08;;;;;;;;;11.00;9.75;;;;;;;;4978901;28;68552;-89
2021/06/24 05:15:36;;;;;;;;;13.00;12.25;;;;;;;;4979034;28;47021;-87
2021/06/24 05:20:48;;;;;;;;;13.00;11.50;;;;;;;;4957881;28;47061;-84
2021/06/24 05:23:16;;;;;;;;;9.75;9.75;;;;;;;;4983881;28;46810;-84
2021/06/24 05:25:45;;;;;;;;;11.00;9.00;;;;;;;;4968774;28;49610;-84
2021/06/24 05:28:12;;;;;;;;;11.00;10.00;;;;;;;;4946786;28;47086;-86
2021/06/24 05:30:57;;;;;;;;;15.50;10.75;;;;;;;;4957941;28;47065;-86
2021/06/24 05:33:31;;;;;;;;;11.00;10.00;;;;;;;;4960721;28;46816;-89
2021/06/24 05:36:33;;;;;;;;;10.50;10.50;;;;;;;;4958121;28;49261;-87
2021/06/24 05:39:39;;;;;;;;;10.50;9.25;;;;;;;;4959603;28;47031;-88
2021/06/24 05:49:02;;;;;;;;;14.75;12.50;;;;;;;;4926126;28;48124;-88
2021/06/24 06:01:06;;;;;;;;;14.00;10.75;;;;;;;;4761276;29;47131;-86
2021/06/24 06:04:22;;;;;;;;;;;;;;;;;;;;;
2021/06/24 06:07:16;;;;;;;;;10.50;10.00;;;;;;;;4769070;29;72160;-88
2021/06/24 06:13:09;;;;;;;;;12.00;8.50;;;;;;;;4806412;29;47217;-86
2021/06/24 06:15:38;;;;;;;;;17.00;13.00;;;;;;;;4826938;29;46840;-88
2021/06/24 06:18:10;;;;;;;;;11.50;10.00;;;;;;;;4875850;28;47193;-86
2021/06/24 06:20:36;;;;;;;;;13.00;12.00;;;;;;;;4978698;28;46928;-85
2021/06/24 06:23:10;;;;;;;;;13.75;10.00;;;;;;;;4984882;28;47735;-86
2021/06/24 06:25:36;;;;;;;;;11.00;10.50;;;;;;;;4974316;28;46940;-86
2021/06/24 06:28:04;;;;;;;;;9.50;8.25;;;;;;;;4982102;28;47121;-89
2021/06/24 06:30:30;;;;;;;;;11.00;10.75;;;;;;;;4982341;28;46980;-86
2021/06/24 06:32:55;;;;;;;;;10.00;9.50;;;;;;;;4981548;28;47807;-86
2021/06/24 06:35:21;;;;;;;;;8.75;8.75;;;;;;;;4982792;28;47034;-87
2021/06/24 06:37:49;;;;;;;;;13.25;10.75;;;;;;;;4982176;28;46994;-87
2021/06/24 06:40:14;;;;;;;;;11.50;9.50;;;;;;;;4981867;28;46852;-85
2021/06/24 06:42:40;;;;;;;;;13.75;12.00;;;;;;;;4981640;28;46969;-86
2021/06/24 06:45:06;;;;;;;;;14.00;9.25;;;;;;;;4982052;28;46839;-86
2021/06/24 06:47:32;;;;;;;;;12.00;10.75;;;;;;;;4981577;28;47155;-85
2021/06/24 06:49:57;;;;;;;;;13.00;11.25;;;;;;;;4982118;28;47039;-86
2021/06/24 06:52:22;;;;;;;;;13.00;12.00;;;;;;;;4980462;28;49025;-86
2021/06/24 06:54:48;;;;;;;;;10.50;9.50;;;;;;;;4981815;28;47154;-86
2021/06/24 06:57:13;;;;;;;;;12.25;11.00;;;;;;;;4964181;28;47184;-86
2021/06/24 06:59:41;;;;;;;;;8.75;8.00;;;;;;;;4981998;28;47291;-86
2021/06/24 07:02:07;;;;;;;;;10.75;10.75;;;;;;;;4981437;28;46924;-86
2021/06/24 07:04:34;;;;;;;;;13.25;10.75;;;;;;;;4980232;28;47395;-88
2021/06/24 07:07:00;;;;;;;;;12.25;8.50;;;;;;;;4981654;28;46851;-86
2021/06/24 07:09:25;;;;;;;;;11.50;10.00;;;;;;;;4964511;28;46805;-86
2021/06/24 07:11:51;;;;;;;;;13.25;12.75;;;;;;;;4962042;28;46827;-86
2021/06/24 07:14:18;;;;;;;;;10.25;10.25;;;;;;;;4960468;28;46930;-86
2021/06/24 07:16:43;;;;;;;;;14.00;11.00;;;;;;;;4961900;28;46947;-86
2021/06/24 07:19:08;;;;;;;;;10.25;10.25;;;;;;;;4962020;28;47171;-86
2021/06/24 07:21:34;;;;;;;;;12.75;10.50;;;;;;;;4960386;28;48293;-86
2021/06/24 07:24:01;;;;;;;;;13.50;10.00;;;;;;;;4954808;28;47073;-86
2021/06/24 07:26:30;;;;;;;;;15.25;12.75;;;;;;;;4961775;28;47019;-86
2021/06/24 07:28:58;;;;;;;;;10.00;10.00;;;;;;;;4961769;28;47046;-86
2021/06/24 07:31:24;;;;;;;;;12.50;9.75;;;;;;;;4961144;28;47033;-86
2021/06/24 07:33:49;;;;;;;;;10.25;9.50;;;;;;;;4962030;28;47009;-86
2021/06/24 07:36:17;;;;;;;;;13.75;11.75;;;;;;;;4961966;28;46979;-86
2021/06/24 07:38:43;;;;;;;;;11.75;10.75;;;;;;;;4960130;28;46937;-88
2021/06/24 07:41:08;;;;;;;;;11.75;11.00;;;;;;;;4961455;28;46847;-86
2021/06/24 07:43:33;;;;;;;;;12.75;10.75;;;;;;;;4961459;28;46903;-86
2021/06/24 07:46:01;;;;;;;;;12.75;9.00;;;;;;;;4961329;28;47142;-86
2021/06/24 07:48:27;;;;;;;;;13.75;11.00;;;;;;;;4961478;28;46849;-86
2021/06/24 07:50:52;;;;;;;;;11.00;10.75;;;;;;;;4961383;28;47028;-86
2021/06/24 07:53:20;;;;;;;;;12.25;11.00;;;;;;;;4960056;28;47026;-87
2021/06/24 07:55:48;;;;;;;;;17.00;14.50;;;;;;;;4961511;28;47022;-86
2021/06/24 07:58:16;;;;;;;;;12.25;12.25;;;;;;;;4961494;28;46884;-86
2021/06/24 08:00:49;;;;;;;;;16.00;12.75;;;;;;;;4959629;28;48437;-87
2021/06/24 08:03:14;;;;;;;;;16.25;12.50;;;;;;;;4947761;28;47027;-86
2021/06/24 08:05:41;;;;;;;;;14.00;13.75;;;;;;;;4959864;28;47116;-85
2021/06/24 08:08:06;;;;;;;;;14.25;11.00;;;;;;;;4961199;28;46853;-86
2021/06/24 08:10:32;;;;;;;;;15.00;14.25;;;;;;;;4960990;28;48045;-86
2021/06/24 08:12:57;;;;;;;;;16.00;12.00;;;;;;;;4959618;28;46791;-86
2021/06/24 08:15:26;;;;;;;;;18.50;14.00;;;;;;;;4961024;28;47131;-86
2021/06/24 08:17:52;;;;;;;;;12.50;11.75;;;;;;;;4961000;28;46986;-86
2021/06/24 08:20:17;;;;;;;;;16.75;12.75;;;;;;;;4943437;28;48390;-86
2021/06/24 08:22:45;;;;;;;;;13.00;11.00;;;;;;;;4960649;28;46908;-86
2021/06/24 08:25:11;;;;;;;;;19.25;14.00;;;;;;;;4954739;28;47021;-87
2021/06/24 08:27:39;;;;;;;;;16.75;12.75;;;;;;;;4948405;28;46880;-86
2021/06/24 08:30:06;;;;;;;;;15.50;12.25;;;;;;;;4960689;28;47041;-86
2021/06/24 08:32:37;;;;;;;;;12.75;11.00;;;;;;;;4960592;28;47096;-87
2021/06/24 08:35:02;;;;;;;;;16.75;13.00;;;;;;;;4961461;28;47051;-86
2021/06/24 08:37:27;;;;;;;;;17.50;14.50;;;;;;;;4959709;28;46940;-86
2021/06/24 08:40:00;;;;;;;;;15.75;14.75;;;;;;;;4960479;28;46985;-87
2021/06/24 08:42:26;;;;;;;;;16.00;15.50;;;;;;;;4960732;28;47192;-90
2021/06/24 08:44:52;;;;;;;;;20.00;16.25;;;;;;;;4959444;28;47109;-87
2021/06/24 08:47:18;;;;;;;;;16.75;14.50;;;;;;;;4960720;28;47061;-86
2021/06/24 08:49:44;;;;;;;;;16.00;16.00;;;;;;;;4958394;28;47114;-86
2021/06/24 08:52:10;;;;;;;;;14.75;13.00;;;;;;;;4960735;28;46978;-87
2021/06/24 08:54:38;;;;;;;;;14.50;13.75;;;;;;;;4960337;28;46979;-86
2021/06/24 08:57:03;;;;;;;;;20.25;13.25;;;;;;;;4961088;28;46810;-86
2021/06/24 08:59:29;;;;;;;;;19.75;16.25;;;;;;;;4960308;28;47963;-87
2021/06/24 09:01:56;;;;;;;;;19.25;13.75;;;;;;;;4958742;28;47308;-87
2021/06/24 09:04:24;;;;;;;;;17.00;16.00;;;;;;;;4958720;28;46784;-86
2021/06/24 09:06:56;;;;;;;;;16.00;15.50;;;;;;;;4955805;28;47258;-84
2021/06/24 09:09:25;;;;;;;;;15.25;14.25;;;;;;;;4955870;28;47153;-84
2021/06/24 09:12:17;;;;;;;;;15.50;13.25;;;;;;;;4960285;28;47280;-87
2021/06/24 09:14:53;;;;;;;;;18.25;15.50;;;;;;;;4947890;28;46898;-87
2021/06/24 09:17:37;;;;;;;;;13.75;12.00;;;;;;;;4960015;28;46926;-88
2021/06/24 09:20:04;;;;;;;;;15.25;12.25;;;;;;;;4960236;28;47985;-86
2021/06/24 09:22:29;;;;;;;;;15.75;15.00;;;;;;;;4960023;28;47052;-86
2021/06/24 09:25:05;;;;;;;;;;;;;;;;;;;;;
2021/06/24 09:27:45;;;;;;;;;14.25;13.25;;;;;;;;4959103;28;68798;-86
2021/06/24 09:30:11;;;;;;;;;15.25;14.25;;;;;;;;4959943;28;47834;-84
2021/06/24 09:32:45;;;;;;;;;17.50;13.75;;;;;;;;4959541;28;47046;-84
2021/06/24 09:35:23;;;;;;;;;16.25;13.00;;;;;;;;4960505;28;47062;-84
2021/06/24 09:37:59;;;;;;;;;18.00;11.25;;;;;;;;4960252;28;46918;-84
2021/06/24 09:43:44;;;;;;;;;;;;;;;;;;;;;
2021/06/24 09:46:15;;;;;;;;;16.00;13.50;;;;;;;;4958729;28;72741;-87
2021/06/24 09:48:55;;;;;;;;;;;;;;;;;;;;;
2021/06/24 09:51:30;;;;;;;;;16.25;13.50;;;;;;;;4958710;28;75750;-86
2021/06/24 09:54:05;;;;;;;;;13.75;11.75;;;;;;;;4959745;28;46896;-86
2021/06/24 09:56:36;;;;;;;;;13.25;11.50;;;;;;;;4962559;28;46754;-87
2021/06/24 09:59:07;;;;;;;;;13.00;12.50;;;;;;;;4961741;28;47272;-86
2021/06/24 10:01:42;;;;;;;;;13.75;13.50;;;;;;;;4962728;28;46932;-87
2021/06/24 10:04:25;;;;;;;;;10.50;10.00;;;;;;;;4961814;28;47055;-86
2021/06/24 10:07:21;;;;;;;;;11.75;11.00;;;;;;;;4962916;28;46881;-88
2021/06/24 10:09:58;;;;;;;;;;;;;;;;;;;;;
2021/06/24 10:12:24;;;;;;;;;12.75;10.75;;;;;;;;4961024;28;77108;-87
2021/06/24 10:15:09;;;;;;;;;12.75;11.75;;;;;;;;4962839;28;46970;-89
2021/06/24 10:17:35;;;;;;;;;12.50;8.50;;;;;;;;4975680;28;46980;-84
2021/06/24 10:20:08;;;;;;;;;15.25;12.00;;;;;;;;4982884;28;47013;-84
2021/06/24 10:22:46;;;;;;;;;10.75;10.75;;;;;;;;4982144;28;46992;-86
2021/06/24 10:25:23;;;;;;;;;;;;;;;;;;;;;
2021/06/24 10:27:51;;;;;;;;;16.25;14.50;;;;;;;;4969943;28;73039;-86
2021/06/24 10:30:20;;;;;;;;;12.50;11.50;;;;;;;;4980745;28;46986;-87
2021/06/24 10:33:14;;;;;;;;;;;;;;;;;;;;;
2021/06/24 10:35:52;;;;;;;;;17.75;13.25;;;;;;;;4980993;28;74605;-84
2021/06/24 10:38:56;;;;;;;;;;;;;;;;;;;;;
2021/06/24 10:41:24;;;;;;;;;15.25;12.25;;;;;;;;4981022;28;67779;-84
2021/06/24 10:43:52;;;;;;;;;14.75;13.50;;;;;;;;4981927;28;47034;-85
2021/06/24 10:46:21;;;;;;;;;13.50;13.25;;;;;;;;4981523;28;46824;-84
2021/06/24 10:48:46;;;;;;;;;12.00;11.00;;;;;;;;4981883;28;47140;-86
2021/06/24 10:51:17;;;;;;;;;10.50;9.75;;;;;;;;4982067;28;47108;-84
2021/06/24 10:53:53;;;;;;;;;18.25;12.75;;;;;;;;4981899;28;49129;-85
2021/06/24 10:56:19;;;;;;;;;10.50;9.25;;;;;;;;4981663;28;47089;-87
2021/06/24 10:58:47;;;;;;;;;11.50;11.50;;;;;;;;4982013;28;47123;-87
2021/06/24 11:01:42;;;;;;;;;;;;;;;;;;;;;
2021/06/24 11:04:26;;;;;;;;;13.25;12.25;;;;;;;;4980559;28;74948;-89
2021/06/24 11:06:59;;;;;;;;;12.50;10.00;;;;;;;;4975862;28;47041;-86
2021/06/24 11:09:25;;;;;;;;;16.00;14.25;;;;;;;;4978211;28;47101;-89
2021/06/24 11:11:50;;;;;;;;;14.75;10.75;;;;;;;;4964091;28;47018;-84
2021/06/24 11:14:35;;;;;;;;;14.25;10.00;;;;;;;;4981472;28;47231;-85
2021/06/24 11:17:36;;;;;;;;;;;;;;;;;;;;;
2021/06/24 11:20:41;;;;;;;;;;;;;;;;;;;;;
2021/06/24 11:23:46;;;;;;;;;11.75;10.50;;;;;;;;4916522;28;69333;-84
2021/06/24 11:26:28;;;;;;;;;12.50;12.25;;;;;;;;4977525;28;48160;-85
2021/06/24 11:35:31;;;;;;;;;14.00;12.50;;;;;;;;4976308;28;46986;-86
2021/06/24 11:38:14;;;;;;;;;;;;;;;;;;;;;
2021/06/24 11:43:47;;;;;;;;;;;;;;;;;;;;;
2021/06/24 11:46:24;;;;;;;;;14.00;12.25;;;;;;;;4979940;28;68735;-85
2021/06/24 11:48:56;;;;;;;;;11.50;11.50;;;;;;;;4980725;28;46995;-85
2021/06/24 12:00:28;;;;;;;;;13.75;12.75;;;;;;;;4980910;28;47430;-85
2021/06/24 12:03:18;;;;;;;;;;;;;;;;;;;;;
2021/06/24 12:06:24;;;;;;;;;16.75;12.00;;;;;;;;4979541;28;71850;-84
2021/06/24 12:09:32;;;;;;;;;;;;;;;;;;;;;
2021/06/24 12:11:57;;;;;;;;;;;;;;;;;;;;;
2021/06/24 12:14:36;;;;;;;;;9.75;9.75;;;;;;;;4979643;28;74588;-84
2021/06/24 12:17:07;;;;;;;;;13.25;12.00;;;;;;;;4980342;28;46923;-85
2021/06/24 12:20:39;;;;;;;;;;;;;;;;;;;;;
2021/06/24 12:26:19;;;;;;;;;;;;;;;;;;;;;
2021/06/24 12:28:58;;;;;;;;;12.00;10.00;;;;;;;;4881125;29;71309;-85
2021/06/24 12:31:36;;;;;;;;;;;;;;;;;;;;;
2021/06/24 12:34:25;;;;;;;;;;;;;;;;;;;;;
2021/06/24 12:37:08;;;;;;;;;13.50;10.75;;;;;;;;4979122;28;75234;-84
2021/06/24 12:39:53;;;;;;;;;;;;;;;;;;;;;
2021/06/24 12:42:31;;;;;;;;;;;;;;;;;;;;;
2021/06/24 12:48:03;;;;;;;;;;;;;;;;;;;;;
2021/06/24 12:50:46;;;;;;;;;13.00;12.25;;;;;;;;4967842;28;73070;-85
2021/06/24 12:53:40;;;;;;;;;10.75;10.50;;;;;;;;4980076;28;47010;-84
2021/06/24 12:56:37;;;;;;;;;11.00;11.00;;;;;;;;4979779;28;47026;-85
2021/06/24 12:59:27;;;;;;;;;12.00;10.50;;;;;;;;4970352;28;47268;-84
2021/06/24 13:02:19;;;;;;;;;;;;;;;;;;;;;
2021/06/24 13:04:50;;;;;;;;;10.25;9.50;;;;;;;;4978817;28;67391;-85
2021/06/24 13:10:14;;;;;;;;;12.00;12.00;;;;;;;;4957494;28;47094;-84
2021/06/24 13:13:16;;;;;;;;;;;;;;;;;;;;;
2021/06/24 13:16:20;;;;;;;;;;;;;;;;;;;;;
2021/06/24 13:19:16;;;;;;;;;5.25;5.25;;;;;;;;4953312;28;75682;-84
2021/06/24 13:22:03;;;;;;;;;;;;;;;;;;;;;
2021/06/24 13:24:48;;;;;;;;;10.00;8.25;;;;;;;;4980877;28;71852;-84
2021/06/24 13:27:34;;;;;;;;;;;;;;;;;;;;;
2021/06/24 13:30:30;;;;;;;;;;;;;;;;;;;;;
2021/06/24 13:36:29;;;;;;;;;;;;;;;;;;;;;
2021/06/24 13:39:07;;;;;;;;;12.00;10.00;;;;;;;;4978444;28;68835;-84
2021/06/24 13:41:41;;;;;;;;;9.50;9.50;;;;;;;;4977565;28;49614;-84
2021/06/24 13:44:13;;;;;;;;;12.00;10.00;;;;;;;;4977849;28;47936;-84
2021/06/24 13:49:55;;;;;;;;;8.75;7.75;;;;;;;;4975095;28;47615;-84
2021/06/24 13:52:31;;;;;;;;;9.00;6.75;;;;;;;;4978605;28;47720;-84
2021/06/24 13:55:01;;;;;;;;;7.25;7.00;;;;;;;;4979160;28;47030;-84
2021/06/24 13:57:48;;;;;;;;;10.75;7.00;;;;;;;;4979171;28;47148;-85
2021/06/24 14:00:29;;;;;;;;;;;;;;;;;;;;;
2021/06/24 14:03:04;;;;;;;;;7.50;6.50;;;;;;;;4977786;28;76867;-84
2021/06/24 14:05:29;;;;;;;;;10.00;7.25;;;;;;;;4977575;28;47001;-84
2021/06/24 14:08:03;;;;;;;;;7.25;7.00;;;;;;;;4981131;28;47518;-84
2021/06/24 14:10:48;;;;;;;;;7.50;6.75;;;;;;;;4999047;28;47054;-84
2021/06/24 14:13:17;;;;;;;;;7.00;7.00;;;;;;;;4986755;28;47112;-84
2021/06/24 14:15:42;;;;;;;;;9.25;7.00;;;;;;;;4998269;28;47124;-84
2021/06/24 14:18:10;;;;;;;;;7.00;7.00;;;;;;;;4998458;28;47628;-84
2021/06/24 14:20:38;;;;;;;;;7.25;7.00;;;;;;;;4998654;28;46867;-84
2021/06/24 14:23:13;;;;;;;;;7.75;7.75;;;;;;;;5001414;28;46991;-85
2021/06/24 14:25:44;;;;;;;;;8.00;8.00;;;;;;;;5001156;28;46986;-84
2021/06/24 14:28:18;;;;;;;;;84.25;74.75;;;;;;;;4998532;28;46752;-84
2021/06/24 14:30:50;;;;;;;;;55.00;43.50;;;;;;;;4998087;28;46891;-84
2021/06/24 14:33:18;;;;;;;;;47.00;37.00;;;;;;;;4981037;28;48557;-84
2021/06/24 14:35:51;;;;;;;;;31.00;25.75;;;;;;;;4985821;28;46942;-84
2021/06/24 14:38:24;;;;;;;;;15.50;13.25;;;;;;;;4980383;28;47008;-84
2021/06/24 14:40:50;;;;;;;;;16.50;11.25;;;;;;;;4998977;28;47136;-84
2021/06/24 14:43:18;;;;;;;;;10.00;8.25;;;;;;;;4983778;28;49211;-85
2021/06/24 14:45:53;;;;;;;;;6.50;6.00;;;;;;;;5001678;28;46875;-84
2021/06/24 14:48:24;;;;;;;;;30.25;26.00;;;;;;;;5001436;28;46894;-84
2021/06/24 14:50:51;;;;;;;;;21.50;19.75;;;;;;;;5001689;28;46994;-84
2021/06/24 14:53:19;;;;;;;;;9.75;8.00;;;;;;;;5001227;28;47092;-84
2021/06/24 14:55:54;;;;;;;;;7.75;6.00;;;;;;;;5001385;28;46851;-84
2021/06/24 14:58:22;;;;;;;;;40.25;32.25;;;;;;;;5001560;28;47036;-84
2021/06/24 15:00:57;;;;;;;;;13.50;11.00;;;;;;;;5001393;28;46819;-84
2021/06/24 15:03:33;;;;;;;;;8.50;6.00;;;;;;;;4983228;28;49194;-84
2021/06/24 15:06:27;;;;;;;;;8.25;7.50;;;;;;;;4983171;28;47447;-84
2021/06/24 15:08:47;;;;;;;;;10.75;9.50;;;;;;;;4989690;28;47353;-84
2021/06/24 15:11:12;;;;;;;;;9.75;9.00;;;;;;;;4981612;28;46907;-84
2021/06/24 15:14:08;;;;;;;;;;;;;;;;;;;;;
2021/06/24 15:16:45;;;;;;;;;;;;;;;;;;;;;
2021/06/24 15:19:34;;;;;;;;;8.75;7.75;;;;;;;;4980426;28;73080;-85
2021/06/24 15:22:13;;;;;;;;;6.00;5.75;;;;;;;;4980980;28;47106;-83
2021/06/24 15:24:44;;;;;;;;;18.25;14.75;;;;;;;;4956884;28;48492;-85
2021/06/24 15:27:12;;;;;;;;;8.50;7.75;;;;;;;;4979941;28;47456;-85
2021/06/24 15:29:50;;;;;;;;;6.25;6.25;;;;;;;;4981327;28;47080;-84
2021/06/24 15:35:17;;;;;;;;;;;;;;;;;;;;;
2021/06/24 15:38:00;;;;;;;;;;;;;;;;;;;;;
2021/06/24 15:40:27;;;;;;;;;6.75;5.50;;;;;;;;4979797;28;73059;-84
2021/06/24 15:42:55;;;;;;;;;7.00;5.50;;;;;;;;4981249;28;47036;-84
2021/06/24 15:45:37;;;;;;;;;5.00;4.50;;;;;;;;4980813;28;46975;-85
2021/06/24 15:48:13;;;;;;;;;5.00;4.50;;;;;;;;4980672;28;46931;-85
2021/06/24 15:50:43;;;;;;;;;5.00;5.00;;;;;;;;4981292;28;47148;-84
2021/06/24 15:53:08;;;;;;;;;4.00;4.00;;;;;;;;4980376;28;46808;-84
2021/06/24 15:55:49;;;;;;;;;;;;;;;;;;;;;
2021/06/24 15:58:25;;;;;;;;;4.00;3.75;;;;;;;;4979854;28;75451;-85
2021/06/24 16:01:07;;;;;;;;;6.25;5.00;;;;;;;;4980162;28;46946;-84
2021/06/24 16:03:55;;;;;;;;;4.00;4.00;;;;;;;;4963230;28;46850;-84
2021/06/24 16:06:40;;;;;;;;;5.75;4.25;;;;;;;;4961497;28;46949;-84
2021/06/24 16:09:17;;;;;;;;;;;;;;;;;;;;;
2021/06/24 16:12:05;;;;;;;;;;;;;;;;;;;;;
2021/06/24 16:14:40;;;;;;;;;4.00;4.00;;;;;;;;4979756;28;68613;-84
2021/06/24 16:17:15;;;;;;;;;4.00;3.75;;;;;;;;4980310;28;47073;-84
2021/06/24 16:19:53;;;;;;;;;;;;;;;;;;;;;
2021/06/24 16:22:21;;;;;;;;;3.75;3.75;;;;;;;;4979314;28;73352;-84
2021/06/24 16:24:48;;;;;;;;;3.00;3.00;;;;;;;;4987717;28;47130;-84
2021/06/24 16:27:36;;;;;;;;;4.50;3.25;;;;;;;;4980372;28;47132;-86
2021/06/24 16:30:07;;;;;;;;;2.50;2.00;;;;;;;;4973170;28;47164;-84
2021/06/24 16:32:41;;;;;;;;;4.00;3.75;;;;;;;;4968288;28;46858;-84
2021/06/24 16:35:09;;;;;;;;;3.75;3.75;;;;;;;;4981254;28;47078;-84
2021/06/24 16:37:56;;;;;;;;;3.25;3.25;;;;;;;;4980433;28;47844;-85
2021/06/24 16:40:30;;;;;;;;;7.25;5.00;;;;;;;;4979545;28;47200;-85
2021/06/24 16:42:58;;;;;;;;;4.50;2.25;;;;;;;;4979980;28;47132;-84
2021/06/24 16:45:26;;;;;;;;;4.00;3.75;;;;;;;;4980223;28;46963;-86
2021/06/24 16:48:01;;;;;;;;;5.25;4.00;;;;;;;;4962139;28;48438;-84
2021/06/24 16:50:33;;;;;;;;;4.00;4.00;;;;;;;;4980399;28;46911;-85
2021/06/24 16:53:12;;;;;;;;;4.00;4.00;;;;;;;;4962237;28;47004;-85
2021/06/24 16:55:50;;;;;;;;;7.00;5.00;;;;;;;;4962642;28;47077;-85
2021/06/24 16:58:15;;;;;;;;;3.00;3.00;;;;;;;;4967684;28;48104;-86
2021/06/24 17:00:41;;;;;;;;;6.25;5.25;;;;;;;;4979160;28;46972;-84
2021/06/24 17:03:11;;;;;;;;;5.25;5.00;;;;;;;;4979996;28;46994;-85
2021/06/24 17:05:39;;;;;;;;;5.50;5.00;;;;;;;;4961240;28;46920;-84
2021/06/24 17:08:07;;;;;;;;;5.00;4.25;;;;;;;;4979438;28;48038;-86
2021/06/24 17:10:35;;;;;;;;;6.50;4.00;;;;;;;;4980008;28;47088;-85
2021/06/24 17:13:03;;;;;;;;;10.00;8.75;;;;;;;;4979542;28;46899;-85
2021/06/24 17:15:40;;;;;;;;;7.00;4.50;;;;;;;;4979669;28;46743;-88
